Airfield :
LOGIN :

Register | Disclaimer

   EN    FR    IT 

 










Legend :    VFR   Marginal VFR   IFR   Intensive IFR   Very Intensive IFR
Visi :
Ceiling :
>= 8 km
>= 3000ft
5 to 8 km
1000 to 3000 ft
1500m to 5 km
500 to 1000 ft
800 to 1500m
200 to 500 ft
< 800m
< 200 ft
Symbols :   Thunderstorms  Fog  Heavy snow  Heavy precipitations  Wind > 20 kt
SIGMETs :     Misc.  Thunderstorms  Icing  Turbulence  Mountain Waves  Volcanic Ashes







- Airport Elevation : 289 ft
- IATA code : ZAD


LDZD - Zadar

CURRENT METAR :
  • 192030Z 10003KT 060V140 9999 FEW025 13/11 Q1010 NOSIG

EXPIRED METARs :
  • 192000Z 14003KT 120V190 9999 FEW025 13/11 Q1010 NOSIG
  • 191930Z VRB01KT 9999 FEW025 14/11 Q1010 NOSIG
  • 191900Z 27005KT 240V300 9999 FEW025 16/11 Q1010 NOSIG
  • 191830Z 28006KT 240V310 9999 FEW025 16/11 Q1010 NOSIG
  • 191800Z 26007KT 210V290 9999 FEW025 16/11 Q1010 NOSIG
  • 191730Z 27010KT 230V300 9999 FEW020 SCT033 16/12 Q1010 NOSIG

TAF COR TAF LDZD
Valid from the 19 at 18:00 until the 20 at 18:00 UTC


191729Z 1918/2018 24009KT 9999 FEW030 SCT033 TX18/2012Z TN12/2005Z
BECMG 1919/1921 10006KT
PROB30
TEMPO 1919/2003 4000 SHRA FEW020TCU BKN027
TEMPO 2000/2004 10009KT
BECMG 2004/2006 06010KT
BECMG 2011/2013 33012KT
TEMPO 2013/2017 33015G25KT
No reported NOTAMs for that airfield.
1 SIGMET reported for the Zagreb FIR (LDZO) :
 
Embedded thunderstorms
LDZO SIGMET 11 VALID 191930/192300 LDZA
LDZO ZAGREB FIR EMBD TS FCST WI N4220 E01613 - N4331 E01430 - N4352 E01641 - N4303 E01739 - N4216 E01633 - N4220 E01613 TOP FL320 MOV ENE 5KT NC=



MET'MAP, your aeronautical weather chart ! - Copyright ORBIFLY December 2007 - Disclaimer

ORBIFLY MET'MAP TEAM :

Programming & Development : Alexandra Zaïnal
Concept & Development : Baudouin d'Aumeries
Co-Development & Prog : Marc-Olivier Méhu
Technical & hardware support : Manuel Goepfert

Contact : metmap@orbifly.com




SOURCES & CREDITS :

   NOAA